Liberty Center, Indiana
Current Conditions -  °F | °C
As of 5:55 AM on Friday 24 Oct 2014 (Local Time) from KHHG Reporting Station
Clear Clear  
Wind Chill: 35°   Ceiling: Unl
Heat Index: 39°   Visibility: 7mi
Dew Point: 38°   Wind: 5mph
Humidity: 99%   Direction: 190°S
Pressure: 30.09"   Gusts: NA
Location:  40.7°N, 85.28°W
Report Text: KHHG 240955Z AUTO 19004KT 7SM CLR 04/04 A3009 RMK AO2 T00370035
Loading
Personal Weather Stations






























Interactive Weather Map
Tropical Storm Tracking
New forecast layout! Learn more

10-Day Weather Forecast

Advertisements
Track Severe Weather on mobile